»·PEaware :: AAY959 KSNA-KLAS

AAY959 :: KSNA-KLAS

FLIGHT INFORMATION

Flight Status: Arrived
Operator:
Allegiant Air
More flights by this operator :: More flights under this callsign
Pilot: Ben F. (13029)
Aircraft: AIRBUS A320
(A320)
More flights by this aircraft type
Origin: KSNA John Wayne-Orange Co
United States
Destination: KLAS McCarran Intl
United States
More flights between these airports :: More routes between these airports
Route: FINZZ2 MISEN KEPEC6
File this flight plan on PilotEdge
Remarks: RMK / SIMBRIEF
Altitude:
(Current/Filed)
33,000ft
Speed:
(Current/Filed)
471kts
Departed: 25-Jul-20 05:13 PM
Arrived: 25-Jul-20 05:58 PM
Distance/Time
Traveled:
197nm/0:44
Distance/Time
To Go:
Arrived

Flight Plot

Page will automatically refresh every two minutes.

Flight plan parsing failed; only flown route is shown


Map Options




Map Legend


Flown Route
Filed Route
Departure Airport
Arrival Airport
Navaid (VOR, NDB)
Fix

Horizontal Profiles

Position Reports

Time Latitude Longitude Heading Altitude Ground
Speed
25-Jul-20 16:47 33.674012 -117.865721 77 55ft 0kts
25-Jul-20 16:48 33.674012 -117.865721 77 55ft 0kts
25-Jul-20 16:49 33.674012 -117.865721 77 55ft 0kts
25-Jul-20 16:50 33.674012 -117.865721 77 55ft 0kts
25-Jul-20 16:52 33.674012 -117.865721 77 55ft 0kts
25-Jul-20 16:53 33.674012 -117.865721 77 55ft 0kts
25-Jul-20 16:54 33.674012 -117.865721 77 55ft 0kts
25-Jul-20 16:55 33.674012 -117.865721 77 55ft 0kts
25-Jul-20 16:56 33.674012 -117.865721 77 55ft 0kts
25-Jul-20 16:57 33.674012 -117.865721 77 55ft 0kts
25-Jul-20 16:58 33.674012 -117.865721 77 55ft 0kts
25-Jul-20 16:59 33.674012 -117.865721 77 55ft 0kts
25-Jul-20 17:00 33.674012 -117.865721 77 55ft 0kts
25-Jul-20 17:01 33.674012 -117.865721 77 55ft 0kts
25-Jul-20 17:02 33.674012 -117.865721 77 55ft 0kts
25-Jul-20 17:03 33.674012 -117.865721 77 55ft 0kts
25-Jul-20 17:04 33.674012 -117.865721 77 55ft 0kts
25-Jul-20 17:05 33.673896 -117.865994 45 55ft 2kts
25-Jul-20 17:06 33.673744 -117.866112 33 55ft 1kts
25-Jul-20 17:06 33.673809 -117.866069 28 55ft 0kts
25-Jul-20 17:08 33.673809 -117.866069 28 55ft 0kts
25-Jul-20 17:09 33.674373 -117.866054 354 55ft 12kts
25-Jul-20 17:09 33.676525 -117.865015 27 61ft 10kts
25-Jul-20 17:11 33.680629 -117.863038 298 61ft 0kts
25-Jul-20 17:11 33.680629 -117.863038 298 61ft 0kts
25-Jul-20 17:13 33.678423 -117.867100 207 58ft 84kts
25-Jul-20 17:13 33.644424 -117.888549 202 1571ft 207kts
25-Jul-20 17:14 33.579240 -117.899530 193 4410ft 264kts
25-Jul-20 17:15 33.521150 -117.956423 221 7598ft 279kts
25-Jul-20 17:16 33.510100 -118.038965 312 8137ft 295kts
25-Jul-20 17:17 33.569801 -118.110413 334 10708ft 319kts
25-Jul-20 17:18 33.657236 -118.089708 28 12972ft 344kts
25-Jul-20 17:19 33.745676 -118.038475 28 15423ft 361kts
25-Jul-20 17:20 33.838074 -117.984619 28 17614ft 378kts
25-Jul-20 17:21 33.931606 -117.921698 40 19383ft 396kts
25-Jul-20 17:22 34.023206 -117.837784 40 20608ft 424kts
25-Jul-20 17:23 34.112710 -117.742898 54 22074ft 433kts
25-Jul-20 17:24 34.190312 -117.627661 54 23454ft 445kts
25-Jul-20 17:25 34.269991 -117.509093 54 24724ft 457kts
25-Jul-20 17:26 34.351389 -117.387539 53 25962ft 467kts
25-Jul-20 17:27 34.431237 -117.267884 54 27013ft 476kts
25-Jul-20 17:28 34.515606 -117.141007 53 27980ft 486kts
25-Jul-20 17:29 34.602487 -117.013073 51 28876ft 496kts
25-Jul-20 17:30 34.691607 -116.883154 50 29786ft 502kts
25-Jul-20 17:31 34.780410 -116.753096 50 30972ft 501kts
25-Jul-20 17:32 34.872636 -116.626861 38 32102ft 499kts
25-Jul-20 17:33 34.981471 -116.521390 37 32928ft 501kts
25-Jul-20 17:34 35.091083 -116.414805 38 31804ft 506kts
25-Jul-20 17:35 35.194347 -116.315948 38 29627ft 500kts
25-Jul-20 17:36 35.302210 -116.212691 38 27578ft 485kts
25-Jul-20 17:37 35.406575 -116.112381 38 25564ft 469kts
25-Jul-20 17:38 35.507252 -116.015282 39 23550ft 453kts
25-Jul-20 17:39 35.604619 -115.921074 39 21539ft 438kts
25-Jul-20 17:40 35.698390 -115.830087 39 19537ft 423kts
25-Jul-20 17:41 35.788814 -115.742058 39 17540ft 409kts
25-Jul-20 17:42 35.876292 -115.656642 39 15557ft 395kts
25-Jul-20 17:43 35.960695 -115.573460 44 13573ft 381kts
25-Jul-20 17:44 36.004384 -115.459544 69 11860ft 348kts
25-Jul-20 17:45 36.029884 -115.357258 96 10679ft 281kts
25-Jul-20 17:46 36.023264 -115.266553 97 9670ft 261kts
25-Jul-20 17:47 36.016705 -115.175835 96 8635ft 265kts
25-Jul-20 17:48 36.010718 -115.087042 96 8046ft 251kts
25-Jul-20 17:49 36.005531 -115.001067 96 8021ft 253kts
25-Jul-20 17:50 36.000503 -114.916185 97 8027ft 233kts
25-Jul-20 17:51 36.032719 -114.864731 5 8010ft 210kts
25-Jul-20 17:52 36.083236 -114.889965 284 8004ft 206kts
25-Jul-20 17:53 36.077003 -114.955017 260 6629ft 178kts
25-Jul-20 17:54 36.074001 -115.014907 270 4611ft 177kts
25-Jul-20 17:55 36.073997 -115.073000 265 3066ft 161kts
25-Jul-20 17:56 36.073686 -115.128112 267 2126ft 154kts
25-Jul-20 17:57 36.074586 -115.145627 303 2120ft 8kts
25-Jul-20 17:58 36.076003 -115.146543 0 2120ft 13kts
25-Jul-20 17:59 36.077723 -115.144981 75 2120ft 10kts
25-Jul-20 18:00 36.079568 -115.145259 314 2120ft 0kts

Navigation Log

Ident Type
Flight plan parsing failed, navigation log unavailable